Aviation Digital Data Service (ADDS)

Output produced by METARs form (1335 UTC 26 May 2018)
found at http://www.aviationweather.gov/adds/metars/
 
TAF TNCA 261000Z 2612/2712 10019KT 9999 SCT020